This is the latest recevied weather packets stored in our database for station/object CT7BNL-13. If no packets are shown the sender has not sent any weather packets the latest 10 day(s).
| Time | Temp. | Humidity | Pressure | Rain* | Wind** | Luminosity | Snow |
|---|---|---|---|---|---|---|---|
| 1788259766 | 21.11° C | 71% | 1027.3 hPa | 0 mm | - | 737 W/m² | - |
| 1788258865 | 20° C | 75% | 1027.5 hPa | 0 mm | - | 719 W/m² | - |
| 1788257964 | 18.89° C | 80% | 1027.5 hPa | 0 mm | - | 396 W/m² | - |
| 1788257065 | 18.89° C | 79% | 1027.5 hPa | 0 mm | - | 398 W/m² | - |
| 1788256165 | 18.33° C | 82% | 1027.4 hPa | 0 mm | - | 311 W/m² | - |
| 1788255265 | 16.11° C | 88% | 1027.4 hPa | 0 mm | - | 273 W/m² | - |
| 1788254365 | 16.67° C | 87% | 1027.5 hPa | 0 mm | - | 195 W/m² | - |
| 1788253465 | 16.11° C | 88% | 1027.3 hPa | 0 mm | - | 171 W/m² | - |
| 1788252566 | 15.56° C | 91% | 1027.2 hPa | 0 mm | - | 147 W/m² | - |
| 1788251666 | 15.56° C | 94% | 1027.3 hPa | 0 mm | - | 123 W/m² | - |
| 1788250764 | 15° C | 94% | 1027.2 hPa | 0 mm | - | 72 W/m² | - |
| 1788249865 | 15° C | 95% | 1027.1 hPa | 0 mm | - | 91 W/m² | - |
| 1788248966 | 15° C | 94% | 1027.3 hPa | 0 mm | - | 22 W/m² | - |
| 1788248066 | 15° C | 95% | 1027.1 hPa | 0 mm | - | 69 W/m² | - |
| 1788247165 | 15° C | 96% | 1027 hPa | 0 mm | - | 85 W/m² | - |
| 1788246265 | 14.44° C | 96% | 1026.7 hPa | 0 mm | - | 52 W/m² | - |
| 1788245366 | 14.44° C | 96% | 1026.4 hPa | 0 mm | - | 34 W/m² | - |
| 1788244467 | 14.44° C | 96% | 1026.5 hPa | 0 mm | - | 14 W/m² | - |
| 1788243566 | 14.44° C | 96% | 1026.6 hPa | 0 mm | - | 8 W/m² | - |
| 1788242666 | 14.44° C | 96% | 1026.5 hPa | 0 mm | - | 2 W/m² | - |
| 1788241765 | 14.44° C | 96% | 1026.4 hPa | 0 mm | - | 0 W/m² | - |
| 1788240866 | 14.44° C | 96% | 1026.2 hPa | 0 mm | - | 0 W/m² | - |
| 1788239965 | 14.44° C | 96% | 1026 hPa | 0 mm | - | 0 W/m² | - |
| 1788239064 | 15° C | 96% | 1026.2 hPa | 0 mm | - | 0 W/m² | - |
| 1788238165 | 15° C | 95% | 1025.9 hPa | 0 mm | - | 0 W/m² | - |
* Rain latest hour (hover to see other rain measurements)
** Current wind speed in m/s (hover to see current wind gust speed)